sensor_id;sensor_type;location;lat;lon;timestamp;P1;durP1;ratioP1;P2;durP2;ratioP2
63110;SDS011;49201;53.426;10.300;2023-06-22T00:01:15;5.97;;;4.70;;
63110;SDS011;49201;53.426;10.300;2023-06-22T00:03:41;4.17;;;3.70;;
63110;SDS011;49201;53.426;10.300;2023-06-22T00:06:06;5.17;;;4.33;;
63110;SDS011;49201;53.426;10.300;2023-06-22T00:08:32;6.97;;;4.73;;
63110;SDS011;49201;53.426;10.300;2023-06-22T00:10:57;5.80;;;4.40;;
63110;SDS011;49201;53.426;10.300;2023-06-22T00:13:23;5.47;;;3.73;;
63110;SDS011;49201;53.426;10.300;2023-06-22T00:15:48;4.60;;;4.20;;
63110;SDS011;49201;53.426;10.300;2023-06-22T00:18:14;5.93;;;4.20;;
63110;SDS011;49201;53.426;10.300;2023-06-22T00:20:41;5.27;;;4.77;;
63110;SDS011;49201;53.426;10.300;2023-06-22T00:23:07;5.67;;;4.47;;
63110;SDS011;49201;53.426;10.300;2023-06-22T00:25:39;5.37;;;4.50;;
63110;SDS011;49201;53.426;10.300;2023-06-22T00:28:05;7.13;;;4.90;;
63110;SDS011;49201;53.426;10.300;2023-06-22T00:30:33;6.73;;;4.80;;
63110;SDS011;49201;53.426;10.300;2023-06-22T00:32:59;5.17;;;4.63;;
63110;SDS011;49201;53.426;10.300;2023-06-22T00:35:26;7.63;;;4.73;;
63110;SDS011;49201;53.426;10.300;2023-06-22T00:37:57;9.30;;;5.30;;
63110;SDS011;49201;53.426;10.300;2023-06-22T00:40:29;5.93;;;5.33;;
63110;SDS011;49201;53.426;10.300;2023-06-22T00:42:56;5.77;;;4.70;;
63110;SDS011;49201;53.426;10.300;2023-06-22T00:45:23;5.73;;;4.30;;
63110;SDS011;49201;53.426;10.300;2023-06-22T00:47:52;5.60;;;4.47;;
63110;SDS011;49201;53.426;10.300;2023-06-22T00:50:21;5.07;;;4.57;;
63110;SDS011;49201;53.426;10.300;2023-06-22T00:52:48;5.03;;;4.53;;
63110;SDS011;49201;53.426;10.300;2023-06-22T00:55:16;5.63;;;4.87;;
63110;SDS011;49201;53.426;10.300;2023-06-22T00:57:43;6.80;;;4.93;;
63110;SDS011;49201;53.426;10.300;2023-06-22T01:00:11;6.30;;;4.63;;
63110;SDS011;49201;53.426;10.300;2023-06-22T01:02:42;5.40;;;4.90;;
63110;SDS011;49201;53.426;10.300;2023-06-22T01:05:11;5.93;;;5.27;;
63110;SDS011;49201;53.426;10.300;2023-06-22T01:08:03;4.97;;;4.47;;
63110;SDS011;49201;53.426;10.300;2023-06-22T01:13:07;6.53;;;5.00;;
63110;SDS011;49201;53.426;10.300;2023-06-22T01:15:40;6.50;;;4.43;;
63110;SDS011;49201;53.426;10.300;2023-06-22T01:18:11;4.90;;;4.40;;
63110;SDS011;49201;53.426;10.300;2023-06-22T01:20:39;6.50;;;4.57;;
63110;SDS011;49201;53.426;10.300;2023-06-22T01:23:11;6.60;;;4.87;;
63110;SDS011;49201;53.426;10.300;2023-06-22T01:26:08;5.83;;;4.30;;
63110;SDS011;49201;53.426;10.300;2023-06-22T01:28:47;6.77;;;4.80;;
63110;SDS011;49201;53.426;10.300;2023-06-22T01:31:15;6.83;;;4.70;;
63110;SDS011;49201;53.426;10.300;2023-06-22T01:33:43;4.80;;;4.40;;
63110;SDS011;49201;53.426;10.300;2023-06-22T01:36:12;5.23;;;4.73;;
63110;SDS011;49201;53.426;10.300;2023-06-22T01:38:39;6.20;;;4.67;;
63110;SDS011;49201;53.426;10.300;2023-06-22T01:41:05;6.47;;;5.30;;
63110;SDS011;49201;53.426;10.300;2023-06-22T01:43:31;6.20;;;5.13;;
63110;SDS011;49201;53.426;10.300;2023-06-22T01:45:59;5.90;;;4.90;;
63110;SDS011;49201;53.426;10.300;2023-06-22T01:48:27;6.13;;;5.53;;
63110;SDS011;49201;53.426;10.300;2023-06-22T01:50:53;5.60;;;4.87;;
63110;SDS011;49201;53.426;10.300;2023-06-22T01:53:22;6.70;;;4.73;;
63110;SDS011;49201;53.426;10.300;2023-06-22T01:55:50;5.97;;;4.83;;
63110;SDS011;49201;53.426;10.300;2023-06-22T01:58:16;4.93;;;4.43;;
63110;SDS011;49201;53.426;10.300;2023-06-22T02:00:44;5.87;;;4.73;;
63110;SDS011;49201;53.426;10.300;2023-06-22T02:03:18;5.37;;;4.97;;
63110;SDS011;49201;53.426;10.300;2023-06-22T02:05:50;6.73;;;4.77;;
63110;SDS011;49201;53.426;10.300;2023-06-22T02:08:25;5.80;;;4.90;;
63110;SDS011;49201;53.426;10.300;2023-06-22T02:10:58;5.07;;;4.57;;
63110;SDS011;49201;53.426;10.300;2023-06-22T02:13:25;7.30;;;4.90;;
63110;SDS011;49201;53.426;10.300;2023-06-22T02:15:52;6.57;;;4.67;;
63110;SDS011;49201;53.426;10.300;2023-06-22T02:18:18;6.63;;;4.83;;
63110;SDS011;49201;53.426;10.300;2023-06-22T02:20:45;5.53;;;4.97;;
63110;SDS011;49201;53.426;10.300;2023-06-22T02:23:11;6.83;;;5.30;;
63110;SDS011;49201;53.426;10.300;2023-06-22T02:25:36;5.43;;;4.83;;
63110;SDS011;49201;53.426;10.300;2023-06-22T02:28:02;8.03;;;5.03;;
63110;SDS011;49201;53.426;10.300;2023-06-22T02:30:28;5.83;;;5.20;;
63110;SDS011;49201;53.426;10.300;2023-06-22T02:32:54;7.30;;;5.10;;
63110;SDS011;49201;53.426;10.300;2023-06-22T02:35:24;5.80;;;5.20;;
63110;SDS011;49201;53.426;10.300;2023-06-22T02:37:51;5.60;;;5.00;;
63110;SDS011;49201;53.426;10.300;2023-06-22T02:40:17;6.00;;;5.17;;
63110;SDS011;49201;53.426;10.300;2023-06-22T02:42:42;5.57;;;5.07;;
63110;SDS011;49201;53.426;10.300;2023-06-22T02:45:08;5.90;;;4.73;;
63110;SDS011;49201;53.426;10.300;2023-06-22T02:47:34;7.37;;;5.13;;
63110;SDS011;49201;53.426;10.300;2023-06-22T02:50:00;6.00;;;5.33;;
63110;SDS011;49201;53.426;10.300;2023-06-22T02:52:26;5.10;;;4.57;;
63110;SDS011;49201;53.426;10.300;2023-06-22T02:54:51;8.60;;;5.17;;
63110;SDS011;49201;53.426;10.300;2023-06-22T02:57:17;6.20;;;5.43;;
63110;SDS011;49201;53.426;10.300;2023-06-22T02:59:43;6.07;;;5.47;;
63110;SDS011;49201;53.426;10.300;2023-06-22T03:02:10;7.57;;;5.13;;
63110;SDS011;49201;53.426;10.300;2023-06-22T03:04:37;6.10;;;5.50;;
63110;SDS011;49201;53.426;10.300;2023-06-22T03:07:02;5.83;;;5.23;;
63110;SDS011;49201;53.426;10.300;2023-06-22T03:09:29;6.27;;;5.03;;
63110;SDS011;49201;53.426;10.300;2023-06-22T03:11:56;6.20;;;5.23;;
63110;SDS011;49201;53.426;10.300;2023-06-22T03:14:25;5.70;;;5.10;;
63110;SDS011;49201;53.426;10.300;2023-06-22T03:16:51;5.00;;;4.47;;
63110;SDS011;49201;53.426;10.300;2023-06-22T03:19:18;7.43;;;4.93;;
63110;SDS011;49201;53.426;10.300;2023-06-22T03:21:44;6.20;;;5.13;;
63110;SDS011;49201;53.426;10.300;2023-06-22T03:24:11;5.87;;;5.27;;
63110;SDS011;49201;53.426;10.300;2023-06-22T03:26:37;6.43;;;4.97;;
63110;SDS011;49201;53.426;10.300;2023-06-22T03:29:03;7.20;;;5.07;;
63110;SDS011;49201;53.426;10.300;2023-06-22T03:31:30;8.47;;;5.80;;
63110;SDS011;49201;53.426;10.300;2023-06-22T03:33:55;7.93;;;5.47;;
63110;SDS011;49201;53.426;10.300;2023-06-22T03:36:22;7.70;;;6.13;;
63110;SDS011;49201;53.426;10.300;2023-06-22T03:38:48;6.27;;;5.63;;
63110;SDS011;49201;53.426;10.300;2023-06-22T03:41:15;9.17;;;6.10;;
63110;SDS011;49201;53.426;10.300;2023-06-22T03:43:41;6.60;;;5.90;;
63110;SDS011;49201;53.426;10.300;2023-06-22T03:46:07;7.53;;;5.53;;
63110;SDS011;49201;53.426;10.300;2023-06-22T03:48:33;7.47;;;5.40;;
63110;SDS011;49201;53.426;10.300;2023-06-22T03:51:01;6.97;;;5.17;;
63110;SDS011;49201;53.426;10.300;2023-06-22T03:53:28;5.70;;;5.07;;
63110;SDS011;49201;53.426;10.300;2023-06-22T03:55:55;6.60;;;5.50;;
63110;SDS011;49201;53.426;10.300;2023-06-22T03:58:21;7.07;;;5.67;;
63110;SDS011;49201;53.426;10.300;2023-06-22T04:00:47;6.00;;;5.40;;
63110;SDS011;49201;53.426;10.300;2023-06-22T04:03:14;7.20;;;5.60;;
63110;SDS011;49201;53.426;10.300;2023-06-22T04:05:40;6.17;;;5.57;;
63110;SDS011;49201;53.426;10.300;2023-06-22T04:08:05;6.17;;;5.57;;
63110;SDS011;49201;53.426;10.300;2023-06-22T04:10:31;6.80;;;5.67;;
63110;SDS011;49201;53.426;10.300;2023-06-22T04:12:57;6.37;;;5.00;;
63110;SDS011;49201;53.426;10.300;2023-06-22T04:15:22;5.47;;;4.83;;
63110;SDS011;49201;53.426;10.300;2023-06-22T04:17:48;8.80;;;5.30;;
63110;SDS011;49201;53.426;10.300;2023-06-22T04:20:13;6.73;;;6.00;;
63110;SDS011;49201;53.426;10.300;2023-06-22T04:22:39;5.50;;;5.00;;
63110;SDS011;49201;53.426;10.300;2023-06-22T04:25:05;6.07;;;5.47;;
63110;SDS011;49201;53.426;10.300;2023-06-22T04:27:32;7.27;;;5.13;;
63110;SDS011;49201;53.426;10.300;2023-06-22T04:30:01;8.73;;;5.40;;
63110;SDS011;49201;53.426;10.300;2023-06-22T04:32:27;8.27;;;5.77;;
63110;SDS011;49201;53.426;10.300;2023-06-22T04:34:53;7.17;;;5.43;;
63110;SDS011;49201;53.426;10.300;2023-06-22T04:37:18;8.40;;;5.30;;
63110;SDS011;49201;53.426;10.300;2023-06-22T04:39:44;8.37;;;6.27;;
63110;SDS011;49201;53.426;10.300;2023-06-22T04:42:09;7.87;;;6.40;;
63110;SDS011;49201;53.426;10.300;2023-06-22T04:44:35;6.50;;;5.23;;
63110;SDS011;49201;53.426;10.300;2023-06-22T04:47:01;8.33;;;6.33;;
63110;SDS011;49201;53.426;10.300;2023-06-22T04:49:31;6.63;;;6.00;;
63110;SDS011;49201;53.426;10.300;2023-06-22T04:52:04;7.40;;;6.50;;
63110;SDS011;49201;53.426;10.300;2023-06-22T04:54:30;6.87;;;6.17;;
63110;SDS011;49201;53.426;10.300;2023-06-22T04:57:00;8.57;;;6.17;;
63110;SDS011;49201;53.426;10.300;2023-06-22T04:59:27;9.27;;;6.30;;
63110;SDS011;49201;53.426;10.300;2023-06-22T05:01:58;8.70;;;6.70;;
63110;SDS011;49201;53.426;10.300;2023-06-22T05:04:24;10.57;;;7.57;;
63110;SDS011;49201;53.426;10.300;2023-06-22T05:06:52;10.07;;;6.83;;
63110;SDS011;49201;53.426;10.300;2023-06-22T05:09:18;8.10;;;7.00;;
63110;SDS011;49201;53.426;10.300;2023-06-22T05:11:44;8.07;;;6.90;;
63110;SDS011;49201;53.426;10.300;2023-06-22T05:14:10;8.60;;;7.27;;
63110;SDS011;49201;53.426;10.300;2023-06-22T05:16:36;7.43;;;6.43;;
63110;SDS011;49201;53.426;10.300;2023-06-22T05:19:02;9.27;;;6.77;;
63110;SDS011;49201;53.426;10.300;2023-06-22T05:21:29;7.13;;;6.43;;
63110;SDS011;49201;53.426;10.300;2023-06-22T05:23:55;10.77;;;7.13;;
63110;SDS011;49201;53.426;10.300;2023-06-22T05:26:25;7.80;;;6.67;;
63110;SDS011;49201;53.426;10.300;2023-06-22T05:28:51;9.30;;;6.40;;
63110;SDS011;49201;53.426;10.300;2023-06-22T05:31:16;7.47;;;6.30;;
63110;SDS011;49201;53.426;10.300;2023-06-22T05:33:45;8.77;;;6.33;;
63110;SDS011;49201;53.426;10.300;2023-06-22T05:36:11;9.47;;;6.47;;
63110;SDS011;49201;53.426;10.300;2023-06-22T05:38:37;8.60;;;6.30;;
63110;SDS011;49201;53.426;10.300;2023-06-22T05:41:04;7.73;;;5.87;;
63110;SDS011;49201;53.426;10.300;2023-06-22T05:43:29;9.63;;;5.20;;
63110;SDS011;49201;53.426;10.300;2023-06-22T05:45:55;6.00;;;5.17;;
63110;SDS011;49201;53.426;10.300;2023-06-22T05:48:20;6.77;;;4.93;;
63110;SDS011;49201;53.426;10.300;2023-06-22T05:50:46;8.73;;;4.70;;
63110;SDS011;49201;53.426;10.300;2023-06-22T05:53:11;6.53;;;4.60;;
63110;SDS011;49201;53.426;10.300;2023-06-22T05:55:37;7.10;;;4.53;;
63110;SDS011;49201;53.426;10.300;2023-06-22T05:58:02;7.20;;;4.93;;
63110;SDS011;49201;53.426;10.300;2023-06-22T06:00:31;7.73;;;4.47;;
63110;SDS011;49201;53.426;10.300;2023-06-22T06:02:57;7.47;;;4.63;;
63110;SDS011;49201;53.426;10.300;2023-06-22T06:05:31;5.93;;;4.40;;
63110;SDS011;49201;53.426;10.300;2023-06-22T06:07:59;7.63;;;4.87;;
63110;SDS011;49201;53.426;10.300;2023-06-22T06:10:25;7.10;;;4.47;;
63110;SDS011;49201;53.426;10.300;2023-06-22T06:12:50;5.43;;;4.13;;
63110;SDS011;49201;53.426;10.300;2023-06-22T06:15:16;5.67;;;4.20;;
63110;SDS011;49201;53.426;10.300;2023-06-22T06:17:46;6.70;;;4.77;;
63110;SDS011;49201;53.426;10.300;2023-06-22T06:20:12;6.70;;;4.50;;
63110;SDS011;49201;53.426;10.300;2023-06-22T06:22:37;9.43;;;4.83;;
63110;SDS011;49201;53.426;10.300;2023-06-22T06:25:03;5.57;;;4.53;;
63110;SDS011;49201;53.426;10.300;2023-06-22T06:27:29;6.20;;;4.40;;
63110;SDS011;49201;53.426;10.300;2023-06-22T06:29:55;8.30;;;4.30;;
63110;SDS011;49201;53.426;10.300;2023-06-22T06:32:20;6.67;;;4.50;;
63110;SDS011;49201;53.426;10.300;2023-06-22T06:34:46;5.47;;;3.77;;
63110;SDS011;49201;53.426;10.300;2023-06-22T06:37:11;4.87;;;4.20;;
63110;SDS011;49201;53.426;10.300;2023-06-22T06:39:37;6.10;;;3.87;;
63110;SDS011;49201;53.426;10.300;2023-06-22T06:42:02;5.20;;;3.93;;
63110;SDS011;49201;53.426;10.300;2023-06-22T06:44:28;7.07;;;3.53;;
63110;SDS011;49201;53.426;10.300;2023-06-22T06:46:54;4.20;;;3.80;;
63110;SDS011;49201;53.426;10.300;2023-06-22T06:49:19;5.23;;;3.93;;
63110;SDS011;49201;53.426;10.300;2023-06-22T06:51:45;6.63;;;4.03;;
63110;SDS011;49201;53.426;10.300;2023-06-22T06:54:10;4.80;;;4.10;;
63110;SDS011;49201;53.426;10.300;2023-06-22T06:56:35;4.70;;;3.53;;
63110;SDS011;49201;53.426;10.300;2023-06-22T06:59:01;6.93;;;3.60;;
63110;SDS011;49201;53.426;10.300;2023-06-22T07:01:26;4.83;;;3.67;;
63110;SDS011;49201;53.426;10.300;2023-06-22T07:03:52;5.80;;;3.47;;
63110;SDS011;49201;53.426;10.300;2023-06-22T07:06:18;8.13;;;3.73;;
63110;SDS011;49201;53.426;10.300;2023-06-22T07:08:44;4.20;;;3.17;;
63110;SDS011;49201;53.426;10.300;2023-06-22T07:11:09;5.37;;;3.47;;
63110;SDS011;49201;53.426;10.300;2023-06-22T07:13:35;3.95;;;3.53;;
63110;SDS011;49201;53.426;10.300;2023-06-22T07:16:00;4.13;;;3.55;;
63110;SDS011;49201;53.426;10.300;2023-06-22T07:18:25;7.20;;;3.40;;
63110;SDS011;49201;53.426;10.300;2023-06-22T07:20:51;3.42;;;3.13;;
63110;SDS011;49201;53.426;10.300;2023-06-22T07:23:17;4.68;;;3.47;;
63110;SDS011;49201;53.426;10.300;2023-06-22T07:25:43;8.80;;;3.22;;
63110;SDS011;49201;53.426;10.300;2023-06-22T07:28:08;6.43;;;3.17;;
63110;SDS011;49201;53.426;10.300;2023-06-22T07:30:34;4.90;;;3.08;;
63110;SDS011;49201;53.426;10.300;2023-06-22T07:33:00;5.80;;;3.08;;
63110;SDS011;49201;53.426;10.300;2023-06-22T07:35:32;5.18;;;2.90;;
63110;SDS011;49201;53.426;10.300;2023-06-22T07:37:57;3.85;;;2.80;;
63110;SDS011;49201;53.426;10.300;2023-06-22T07:40:23;4.28;;;2.92;;
63110;SDS011;49201;53.426;10.300;2023-06-22T07:42:48;4.93;;;2.83;;
63110;SDS011;49201;53.426;10.300;2023-06-22T07:45:16;5.40;;;3.10;;
63110;SDS011;49201;53.426;10.300;2023-06-22T07:47:42;3.28;;;2.80;;
63110;SDS011;49201;53.426;10.300;2023-06-22T07:50:08;4.78;;;3.08;;
63110;SDS011;49201;53.426;10.300;2023-06-22T07:52:34;4.75;;;3.00;;
63110;SDS011;49201;53.426;10.300;2023-06-22T07:54:59;3.65;;;2.83;;
63110;SDS011;49201;53.426;10.300;2023-06-22T07:57:25;3.45;;;2.47;;
63110;SDS011;49201;53.426;10.300;2023-06-22T07:59:59;3.78;;;2.72;;
63110;SDS011;49201;53.426;10.300;2023-06-22T08:02:25;6.43;;;2.90;;
63110;SDS011;49201;53.426;10.300;2023-06-22T08:04:51;4.22;;;3.00;;
63110;SDS011;49201;53.426;10.300;2023-06-22T08:07:17;3.95;;;2.92;;
63110;SDS011;49201;53.426;10.300;2023-06-22T08:09:48;3.42;;;3.13;;
63110;SDS011;49201;53.426;10.300;2023-06-22T08:12:14;4.70;;;2.90;;
63110;SDS011;49201;53.426;10.300;2023-06-22T08:14:41;4.45;;;2.88;;
63110;SDS011;49201;53.426;10.300;2023-06-22T08:17:08;5.38;;;2.80;;
63110;SDS011;49201;53.426;10.300;2023-06-22T08:19:34;5.40;;;2.72;;
63110;SDS011;49201;53.426;10.300;2023-06-22T08:21:59;7.53;;;3.20;;
63110;SDS011;49201;53.426;10.300;2023-06-22T08:24:25;6.30;;;4.18;;
63110;SDS011;49201;53.426;10.300;2023-06-22T08:26:51;3.30;;;2.55;;
63110;SDS011;49201;53.426;10.300;2023-06-22T08:29:17;3.28;;;2.88;;
63110;SDS011;49201;53.426;10.300;2023-06-22T08:31:42;2.90;;;2.40;;
63110;SDS011;49201;53.426;10.300;2023-06-22T08:34:08;3.20;;;2.60;;
63110;SDS011;49201;53.426;10.300;2023-06-22T08:36:33;3.50;;;2.63;;
63110;SDS011;49201;53.426;10.300;2023-06-22T08:39:06;3.90;;;2.10;;
63110;SDS011;49201;53.426;10.300;2023-06-22T08:41:33;4.78;;;2.97;;
63110;SDS011;49201;53.426;10.300;2023-06-22T08:43:58;3.58;;;2.15;;
63110;SDS011;49201;53.426;10.300;2023-06-22T08:46:24;3.38;;;2.63;;
63110;SDS011;49201;53.426;10.300;2023-06-22T08:48:55;4.85;;;2.83;;
63110;SDS011;49201;53.426;10.300;2023-06-22T08:51:22;2.70;;;2.50;;
63110;SDS011;49201;53.426;10.300;2023-06-22T08:53:47;5.30;;;2.72;;
63110;SDS011;49201;53.426;10.300;2023-06-22T08:56:13;5.38;;;3.10;;
63110;SDS011;49201;53.426;10.300;2023-06-22T08:58:38;3.65;;;2.60;;
63110;SDS011;49201;53.426;10.300;2023-06-22T09:01:03;6.95;;;2.55;;
63110;SDS011;49201;53.426;10.300;2023-06-22T09:03:29;5.53;;;3.05;;
63110;SDS011;49201;53.426;10.300;2023-06-22T09:05:55;3.55;;;2.65;;
63110;SDS011;49201;53.426;10.300;2023-06-22T09:08:20;3.75;;;2.50;;
63110;SDS011;49201;53.426;10.300;2023-06-22T09:10:46;2.70;;;2.40;;
63110;SDS011;49201;53.426;10.300;2023-06-22T09:13:11;6.72;;;2.90;;
63110;SDS011;49201;53.426;10.300;2023-06-22T09:15:37;5.85;;;3.53;;
63110;SDS011;49201;53.426;10.300;2023-06-22T09:18:02;4.38;;;3.50;;
63110;SDS011;49201;53.426;10.300;2023-06-22T09:20:28;4.90;;;3.53;;
63110;SDS011;49201;53.426;10.300;2023-06-22T09:22:54;3.53;;;2.90;;
63110;SDS011;49201;53.426;10.300;2023-06-22T09:25:19;4.18;;;3.20;;
63110;SDS011;49201;53.426;10.300;2023-06-22T09:27:46;5.03;;;2.90;;
63110;SDS011;49201;53.426;10.300;2023-06-22T09:30:12;4.57;;;2.72;;
63110;SDS011;49201;53.426;10.300;2023-06-22T09:32:37;3.85;;;3.20;;
63110;SDS011;49201;53.426;10.300;2023-06-22T09:35:04;4.57;;;2.90;;
63110;SDS011;49201;53.426;10.300;2023-06-22T09:37:31;3.97;;;3.38;;
63110;SDS011;49201;53.426;10.300;2023-06-22T09:39:56;4.00;;;2.95;;
63110;SDS011;49201;53.426;10.300;2023-06-22T09:42:22;3.47;;;3.17;;
63110;SDS011;49201;53.426;10.300;2023-06-22T09:44:47;4.93;;;2.90;;
63110;SDS011;49201;53.426;10.300;2023-06-22T09:47:12;3.42;;;3.10;;
63110;SDS011;49201;53.426;10.300;2023-06-22T09:49:38;4.57;;;3.80;;
63110;SDS011;49201;53.426;10.300;2023-06-22T09:52:04;4.35;;;3.15;;
63110;SDS011;49201;53.426;10.300;2023-06-22T09:54:29;4.45;;;3.30;;
63110;SDS011;49201;53.426;10.300;2023-06-22T09:56:55;3.53;;;3.10;;
63110;SDS011;49201;53.426;10.300;2023-06-22T09:59:20;4.90;;;2.78;;
63110;SDS011;49201;53.426;10.300;2023-06-22T10:01:46;3.88;;;3.28;;
63110;SDS011;49201;53.426;10.300;2023-06-22T10:04:11;5.88;;;3.05;;
63110;SDS011;49201;53.426;10.300;2023-06-22T10:06:37;5.05;;;3.92;;
63110;SDS011;49201;53.426;10.300;2023-06-22T10:09:05;6.75;;;3.60;;
63110;SDS011;49201;53.426;10.300;2023-06-22T10:11:32;3.72;;;3.40;;
63110;SDS011;49201;53.426;10.300;2023-06-22T10:14:00;4.20;;;3.80;;
63110;SDS011;49201;53.426;10.300;2023-06-22T10:16:32;4.30;;;3.63;;
63110;SDS011;49201;53.426;10.300;2023-06-22T10:18:58;3.38;;;2.95;;
63110;SDS011;49201;53.426;10.300;2023-06-22T10:21:23;5.20;;;3.45;;
63110;SDS011;49201;53.426;10.300;2023-06-22T10:23:49;5.22;;;3.33;;
63110;SDS011;49201;53.426;10.300;2023-06-22T10:26:15;5.78;;;3.70;;
63110;SDS011;49201;53.426;10.300;2023-06-22T10:28:40;3.90;;;3.45;;
63110;SDS011;49201;53.426;10.300;2023-06-22T10:31:05;4.22;;;3.80;;
63110;SDS011;49201;53.426;10.300;2023-06-22T10:33:31;4.88;;;4.18;;
63110;SDS011;49201;53.426;10.300;2023-06-22T10:35:56;4.45;;;3.55;;
63110;SDS011;49201;53.426;10.300;2023-06-22T10:38:22;3.80;;;3.40;;
63110;SDS011;49201;53.426;10.300;2023-06-22T10:40:47;3.92;;;3.55;;
63110;SDS011;49201;53.426;10.300;2023-06-22T10:43:13;5.30;;;3.78;;
63110;SDS011;49201;53.426;10.300;2023-06-22T10:45:38;5.32;;;4.03;;
63110;SDS011;49201;53.426;10.300;2023-06-22T10:48:04;6.80;;;4.15;;
63110;SDS011;49201;53.426;10.300;2023-06-22T10:50:29;4.95;;;3.97;;
63110;SDS011;49201;53.426;10.300;2023-06-22T10:52:55;4.03;;;3.60;;
63110;SDS011;49201;53.426;10.300;2023-06-22T10:55:20;4.78;;;4.10;;
63110;SDS011;49201;53.426;10.300;2023-06-22T10:57:46;6.05;;;3.90;;
63110;SDS011;49201;53.426;10.300;2023-06-22T11:00:13;4.38;;;3.70;;
63110;SDS011;49201;53.426;10.300;2023-06-22T11:02:39;4.43;;;3.60;;
63110;SDS011;49201;53.426;10.300;2023-06-22T11:05:05;4.82;;;3.97;;
63110;SDS011;49201;53.426;10.300;2023-06-22T11:07:31;5.00;;;3.85;;
63110;SDS011;49201;53.426;10.300;2023-06-22T11:09:56;4.07;;;3.67;;
63110;SDS011;49201;53.426;10.300;2023-06-22T11:12:22;5.32;;;4.45;;
63110;SDS011;49201;53.426;10.300;2023-06-22T11:14:47;4.30;;;3.90;;
63110;SDS011;49201;53.426;10.300;2023-06-22T11:17:15;5.00;;;4.22;;
63110;SDS011;49201;53.426;10.300;2023-06-22T11:19:40;6.85;;;4.03;;
63110;SDS011;49201;53.426;10.300;2023-06-22T11:22:06;5.25;;;4.13;;
63110;SDS011;49201;53.426;10.300;2023-06-22T11:24:31;4.25;;;3.85;;
63110;SDS011;49201;53.426;10.300;2023-06-22T11:26:57;5.05;;;4.28;;
63110;SDS011;49201;53.426;10.300;2023-06-22T11:29:23;4.82;;;4.30;;
63110;SDS011;49201;53.426;10.300;2023-06-22T11:31:48;5.28;;;4.20;;
63110;SDS011;49201;53.426;10.300;2023-06-22T11:34:14;4.53;;;4.13;;
63110;SDS011;49201;53.426;10.300;2023-06-22T11:36:39;5.80;;;4.40;;
63110;SDS011;49201;53.426;10.300;2023-06-22T11:39:05;4.40;;;4.00;;
63110;SDS011;49201;53.426;10.300;2023-06-22T11:41:30;4.68;;;4.22;;
63110;SDS011;49201;53.426;10.300;2023-06-22T11:43:56;6.38;;;4.60;;
63110;SDS011;49201;53.426;10.300;2023-06-22T11:46:21;4.82;;;3.97;;
63110;SDS011;49201;53.426;10.300;2023-06-22T11:48:47;5.63;;;4.97;;
63110;SDS011;49201;53.426;10.300;2023-06-22T11:51:12;5.10;;;4.32;;
63110;SDS011;49201;53.426;10.300;2023-06-22T11:53:38;5.03;;;4.20;;
63110;SDS011;49201;53.426;10.300;2023-06-22T11:56:03;4.78;;;4.28;;
63110;SDS011;49201;53.426;10.300;2023-06-22T11:58:29;6.32;;;4.28;;
63110;SDS011;49201;53.426;10.300;2023-06-22T12:00:54;5.80;;;4.28;;
63110;SDS011;49201;53.426;10.300;2023-06-22T12:03:20;5.18;;;4.43;;
63110;SDS011;49201;53.426;10.300;2023-06-22T12:05:49;6.65;;;4.05;;
63110;SDS011;49201;53.426;10.300;2023-06-22T12:08:16;5.05;;;4.55;;
63110;SDS011;49201;53.426;10.300;2023-06-22T12:10:41;4.97;;;4.47;;
63110;SDS011;49201;53.426;10.300;2023-06-22T12:13:07;5.57;;;4.45;;
63110;SDS011;49201;53.426;10.300;2023-06-22T12:15:32;4.68;;;4.28;;
63110;SDS011;49201;53.426;10.300;2023-06-22T12:17:58;5.32;;;4.60;;
63110;SDS011;49201;53.426;10.300;2023-06-22T12:20:23;5.90;;;4.55;;
63110;SDS011;49201;53.426;10.300;2023-06-22T12:22:49;5.47;;;4.65;;
63110;SDS011;49201;53.426;10.300;2023-06-22T12:25:16;5.25;;;4.85;;
63110;SDS011;49201;53.426;10.300;2023-06-22T12:27:42;5.88;;;4.45;;
63110;SDS011;49201;53.426;10.300;2023-06-22T12:30:08;5.50;;;5.00;;
63110;SDS011;49201;53.426;10.300;2023-06-22T12:32:33;5.68;;;5.18;;
63110;SDS011;49201;53.426;10.300;2023-06-22T12:34:59;5.65;;;4.88;;
63110;SDS011;49201;53.426;10.300;2023-06-22T12:37:24;5.70;;;5.05;;
63110;SDS011;49201;53.426;10.300;2023-06-22T12:39:50;7.90;;;5.72;;
63110;SDS011;49201;53.426;10.300;2023-06-22T12:42:16;5.57;;;5.03;;
63110;SDS011;49201;53.426;10.300;2023-06-22T12:44:41;6.55;;;5.95;;
63110;SDS011;49201;53.426;10.300;2023-06-22T12:47:07;6.55;;;5.95;;
63110;SDS011;49201;53.426;10.300;2023-06-22T12:49:34;5.55;;;5.05;;
63110;SDS011;49201;53.426;10.300;2023-06-22T12:52:00;5.80;;;5.07;;
63110;SDS011;49201;53.426;10.300;2023-06-22T12:54:26;6.95;;;4.40;;
63110;SDS011;49201;53.426;10.300;2023-06-22T12:56:53;5.80;;;5.03;;
63110;SDS011;49201;53.426;10.300;2023-06-22T12:59:18;5.45;;;4.95;;
63110;SDS011;49201;53.426;10.300;2023-06-22T13:01:44;6.47;;;5.00;;
63110;SDS011;49201;53.426;10.300;2023-06-22T13:04:10;5.32;;;4.88;;
63110;SDS011;49201;53.426;10.300;2023-06-22T13:06:39;7.50;;;5.32;;
63110;SDS011;49201;53.426;10.300;2023-06-22T13:09:09;5.88;;;5.32;;
63110;SDS011;49201;53.426;10.300;2023-06-22T13:11:35;5.85;;;5.25;;
63110;SDS011;49201;53.426;10.300;2023-06-22T13:14:00;5.60;;;5.07;;
63110;SDS011;49201;53.426;10.300;2023-06-22T13:16:26;6.28;;;5.68;;
63110;SDS011;49201;53.426;10.300;2023-06-22T13:18:51;6.45;;;5.30;;
63110;SDS011;49201;53.426;10.300;2023-06-22T13:21:17;6.68;;;4.90;;
63110;SDS011;49201;53.426;10.300;2023-06-22T13:23:42;5.93;;;5.38;;
63110;SDS011;49201;53.426;10.300;2023-06-22T13:26:08;6.03;;;5.03;;
63110;SDS011;49201;53.426;10.300;2023-06-22T13:28:33;8.85;;;5.90;;
63110;SDS011;49201;53.426;10.300;2023-06-22T13:30:59;5.85;;;5.18;;
63110;SDS011;49201;53.426;10.300;2023-06-22T13:33:24;5.93;;;4.95;;
63110;SDS011;49201;53.426;10.300;2023-06-22T13:35:50;6.07;;;4.95;;
63110;SDS011;49201;53.426;10.300;2023-06-22T13:38:15;5.28;;;4.80;;
63110;SDS011;49201;53.426;10.300;2023-06-22T13:40:42;5.93;;;5.20;;
63110;SDS011;49201;53.426;10.300;2023-06-22T13:43:08;9.88;;;5.15;;
63110;SDS011;49201;53.426;10.300;2023-06-22T13:45:33;5.38;;;4.88;;
63110;SDS011;49201;53.426;10.300;2023-06-22T13:47:59;6.10;;;4.80;;
63110;SDS011;49201;53.426;10.300;2023-06-22T13:50:25;8.40;;;4.93;;
63110;SDS011;49201;53.426;10.300;2023-06-22T13:52:50;5.90;;;5.40;;
63110;SDS011;49201;53.426;10.300;2023-06-22T13:55:15;6.53;;;4.93;;
63110;SDS011;49201;53.426;10.300;2023-06-22T13:57:41;10.30;;;5.38;;
63110;SDS011;49201;53.426;10.300;2023-06-22T14:00:07;8.40;;;5.18;;
63110;SDS011;49201;53.426;10.300;2023-06-22T14:02:39;11.18;;;5.40;;
63110;SDS011;49201;53.426;10.300;2023-06-22T14:05:05;8.63;;;5.47;;
63110;SDS011;49201;53.426;10.300;2023-06-22T14:07:31;5.25;;;4.60;;
63110;SDS011;49201;53.426;10.300;2023-06-22T14:09:57;5.72;;;5.22;;
63110;SDS011;49201;53.426;10.300;2023-06-22T14:12:23;13.02;;;5.13;;
63110;SDS011;49201;53.426;10.300;2023-06-22T14:14:48;5.07;;;4.68;;
63110;SDS011;49201;53.426;10.300;2023-06-22T14:17:14;7.72;;;4.95;;
63110;SDS011;49201;53.426;10.300;2023-06-22T14:19:39;5.38;;;4.88;;
63110;SDS011;49201;53.426;10.300;2023-06-22T14:22:05;6.53;;;5.40;;
63110;SDS011;49201;53.426;10.300;2023-06-22T14:24:30;6.97;;;4.82;;
63110;SDS011;49201;53.426;10.300;2023-06-22T14:26:56;6.13;;;5.05;;
63110;SDS011;49201;53.426;10.300;2023-06-22T14:29:22;6.00;;;4.90;;
63110;SDS011;49201;53.426;10.300;2023-06-22T14:31:47;5.95;;;5.38;;